sensor_id;sensor_type;location;lat;lon;timestamp;P1;durP1;ratioP1;P2;durP2;ratioP2
50092;SDS011;35974;47.752;10.290;2022-09-21T00:01:22;5.55;;;4.40;;
50092;SDS011;35974;47.752;10.290;2022-09-21T00:03:52;6.63;;;4.20;;
50092;SDS011;35974;47.752;10.290;2022-09-21T00:06:20;7.05;;;4.00;;
50092;SDS011;35974;47.752;10.290;2022-09-21T00:08:48;6.82;;;3.80;;
50092;SDS011;35974;47.752;10.290;2022-09-21T00:11:18;8.65;;;4.43;;
50092;SDS011;35974;47.752;10.290;2022-09-21T00:13:50;7.57;;;4.13;;
50092;SDS011;35974;47.752;10.290;2022-09-21T00:16:18;5.93;;;4.35;;
50092;SDS011;35974;47.752;10.290;2022-09-21T00:18:45;7.32;;;4.93;;
50092;SDS011;35974;47.752;10.290;2022-09-21T00:21:13;7.00;;;4.95;;
50092;SDS011;35974;47.752;10.290;2022-09-21T00:23:42;7.75;;;5.15;;
50092;SDS011;35974;47.752;10.290;2022-09-21T00:26:14;7.22;;;5.05;;
50092;SDS011;35974;47.752;10.290;2022-09-21T00:28:43;7.25;;;4.70;;
50092;SDS011;35974;47.752;10.290;2022-09-21T00:31:11;7.30;;;4.28;;
50092;SDS011;35974;47.752;10.290;2022-09-21T00:33:43;13.15;;;5.55;;
50092;SDS011;35974;47.752;10.290;2022-09-21T00:36:16;8.38;;;4.63;;
50092;SDS011;35974;47.752;10.290;2022-09-21T00:38:51;7.05;;;4.57;;
50092;SDS011;35974;47.752;10.290;2022-09-21T00:41:19;6.80;;;4.38;;
50092;SDS011;35974;47.752;10.290;2022-09-21T00:43:48;6.93;;;4.55;;
50092;SDS011;35974;47.752;10.290;2022-09-21T00:46:35;6.38;;;4.88;;
50092;SDS011;35974;47.752;10.290;2022-09-21T00:49:05;9.60;;;5.50;;
50092;SDS011;35974;47.752;10.290;2022-09-21T00:51:34;8.95;;;4.80;;
50092;SDS011;35974;47.752;10.290;2022-09-21T00:54:06;7.30;;;4.50;;
50092;SDS011;35974;47.752;10.290;2022-09-21T00:56:43;7.85;;;4.28;;
50092;SDS011;35974;47.752;10.290;2022-09-21T00:59:10;9.00;;;4.82;;
50092;SDS011;35974;47.752;10.290;2022-09-21T01:01:39;7.05;;;4.78;;
50092;SDS011;35974;47.752;10.290;2022-09-21T01:04:09;8.57;;;4.63;;
50092;SDS011;35974;47.752;10.290;2022-09-21T01:06:37;7.95;;;5.15;;
50092;SDS011;35974;47.752;10.290;2022-09-21T01:09:09;9.02;;;5.18;;
50092;SDS011;35974;47.752;10.290;2022-09-21T01:17:08;6.50;;;4.30;;
50092;SDS011;35974;47.752;10.290;2022-09-21T01:25:39;6.28;;;4.60;;
50092;SDS011;35974;47.752;10.290;2022-09-21T01:28:48;7.57;;;4.28;;
50092;SDS011;35974;47.752;10.290;2022-09-21T01:31:39;9.57;;;4.57;;
50092;SDS011;35974;47.752;10.290;2022-09-21T01:34:19;7.05;;;4.45;;
50092;SDS011;35974;47.752;10.290;2022-09-21T01:36:54;6.80;;;4.10;;
50092;SDS011;35974;47.752;10.290;2022-09-21T01:39:24;8.48;;;4.80;;
50092;SDS011;35974;47.752;10.290;2022-09-21T01:41:52;8.23;;;4.63;;
50092;SDS011;35974;47.752;10.290;2022-09-21T01:44:25;8.23;;;4.70;;
50092;SDS011;35974;47.752;10.290;2022-09-21T01:46:58;7.57;;;4.72;;
50092;SDS011;35974;47.752;10.290;2022-09-21T01:49:47;8.02;;;4.40;;
50092;SDS011;35974;47.752;10.290;2022-09-21T01:52:24;8.55;;;4.60;;
50092;SDS011;35974;47.752;10.290;2022-09-21T01:55:04;8.77;;;4.28;;
50092;SDS011;35974;47.752;10.290;2022-09-21T02:00:30;8.05;;;4.43;;
50092;SDS011;35974;47.752;10.290;2022-09-21T02:03:19;7.20;;;4.10;;
50092;SDS011;35974;47.752;10.290;2022-09-21T02:05:56;8.00;;;4.35;;
50092;SDS011;35974;47.752;10.290;2022-09-21T02:08:29;8.52;;;4.20;;
50092;SDS011;35974;47.752;10.290;2022-09-21T02:11:00;7.70;;;4.00;;
50092;SDS011;35974;47.752;10.290;2022-09-21T02:13:30;5.18;;;3.65;;
50092;SDS011;35974;47.752;10.290;2022-09-21T02:21:32;6.22;;;3.40;;
50092;SDS011;35974;47.752;10.290;2022-09-21T02:29:49;7.78;;;3.58;;
50092;SDS011;35974;47.752;10.290;2022-09-21T02:35:46;6.20;;;3.40;;
50092;SDS011;35974;47.752;10.290;2022-09-21T02:38:30;7.70;;;3.45;;
50092;SDS011;35974;47.752;10.290;2022-09-21T02:41:14;6.00;;;3.22;;
50092;SDS011;35974;47.752;10.290;2022-09-21T02:43:52;4.97;;;3.05;;
50092;SDS011;35974;47.752;10.290;2022-09-21T02:46:35;5.65;;;3.00;;
50092;SDS011;35974;47.752;10.290;2022-09-21T02:49:20;6.30;;;3.00;;
50092;SDS011;35974;47.752;10.290;2022-09-21T02:51:59;9.40;;;3.13;;
50092;SDS011;35974;47.752;10.290;2022-09-21T02:54:31;3.95;;;2.90;;
50092;SDS011;35974;47.752;10.290;2022-09-21T02:57:01;5.00;;;2.58;;
50092;SDS011;35974;47.752;10.290;2022-09-21T02:59:31;5.35;;;2.63;;
50092;SDS011;35974;47.752;10.290;2022-09-21T03:01:58;7.53;;;2.78;;
50092;SDS011;35974;47.752;10.290;2022-09-21T03:04:29;9.00;;;2.88;;
50092;SDS011;35974;47.752;10.290;2022-09-21T03:06:58;6.00;;;2.72;;
50092;SDS011;35974;47.752;10.290;2022-09-21T03:09:25;4.57;;;2.65;;
50092;SDS011;35974;47.752;10.290;2022-09-21T03:11:52;5.47;;;2.40;;
50092;SDS011;35974;47.752;10.290;2022-09-21T03:14:21;4.50;;;2.75;;
50092;SDS011;35974;47.752;10.290;2022-09-21T03:16:50;6.97;;;3.38;;
50092;SDS011;35974;47.752;10.290;2022-09-21T03:19:17;7.47;;;3.30;;
50092;SDS011;35974;47.752;10.290;2022-09-21T03:21:47;7.88;;;3.58;;
50092;SDS011;35974;47.752;10.290;2022-09-21T03:24:13;7.05;;;3.53;;
50092;SDS011;35974;47.752;10.290;2022-09-21T03:27:00;6.55;;;3.22;;
50092;SDS011;35974;47.752;10.290;2022-09-21T03:29:32;8.80;;;4.10;;
50092;SDS011;35974;47.752;10.290;2022-09-21T03:31:59;6.05;;;4.03;;
50092;SDS011;35974;47.752;10.290;2022-09-21T03:34:27;4.80;;;3.42;;
50092;SDS011;35974;47.752;10.290;2022-09-21T03:37:03;9.13;;;3.78;;
50092;SDS011;35974;47.752;10.290;2022-09-21T03:39:31;7.93;;;3.50;;
50092;SDS011;35974;47.752;10.290;2022-09-21T03:41:58;6.43;;;3.13;;
50092;SDS011;35974;47.752;10.290;2022-09-21T03:44:33;5.13;;;3.10;;
50092;SDS011;35974;47.752;10.290;2022-09-21T03:47:00;5.03;;;3.05;;
50092;SDS011;35974;47.752;10.290;2022-09-21T03:49:27;7.22;;;2.70;;
50092;SDS011;35974;47.752;10.290;2022-09-21T03:51:54;7.05;;;3.22;;
50092;SDS011;35974;47.752;10.290;2022-09-21T03:54:22;4.40;;;2.85;;
50092;SDS011;35974;47.752;10.290;2022-09-21T03:56:49;7.78;;;3.05;;
50092;SDS011;35974;47.752;10.290;2022-09-21T03:59:16;5.85;;;3.13;;
50092;SDS011;35974;47.752;10.290;2022-09-21T04:01:42;7.65;;;3.13;;
50092;SDS011;35974;47.752;10.290;2022-09-21T04:04:11;8.07;;;3.30;;
50092;SDS011;35974;47.752;10.290;2022-09-21T04:06:38;5.45;;;3.33;;
50092;SDS011;35974;47.752;10.290;2022-09-21T04:09:06;7.93;;;4.65;;
50092;SDS011;35974;47.752;10.290;2022-09-21T04:11:35;8.55;;;4.32;;
50092;SDS011;35974;47.752;10.290;2022-09-21T04:14:02;8.27;;;4.47;;
50092;SDS011;35974;47.752;10.290;2022-09-21T04:16:29;9.93;;;4.55;;
50092;SDS011;35974;47.752;10.290;2022-09-21T04:18:55;6.93;;;3.92;;
50092;SDS011;35974;47.752;10.290;2022-09-21T04:21:22;8.93;;;3.90;;
50092;SDS011;35974;47.752;10.290;2022-09-21T04:23:51;7.70;;;3.80;;
50092;SDS011;35974;47.752;10.290;2022-09-21T04:26:23;7.25;;;4.35;;
50092;SDS011;35974;47.752;10.290;2022-09-21T04:29:00;8.15;;;3.85;;
50092;SDS011;35974;47.752;10.290;2022-09-21T04:31:27;9.80;;;3.78;;
50092;SDS011;35974;47.752;10.290;2022-09-21T04:33:56;6.18;;;2.92;;
50092;SDS011;35974;47.752;10.290;2022-09-21T04:36:26;8.13;;;3.50;;
50092;SDS011;35974;47.752;10.290;2022-09-21T04:39:00;8.40;;;3.10;;
50092;SDS011;35974;47.752;10.290;2022-09-21T04:41:34;7.85;;;3.08;;
50092;SDS011;35974;47.752;10.290;2022-09-21T04:44:07;8.50;;;4.28;;
50092;SDS011;35974;47.752;10.290;2022-09-21T04:46:33;9.57;;;3.97;;
50092;SDS011;35974;47.752;10.290;2022-09-21T04:49:00;6.68;;;3.28;;
50092;SDS011;35974;47.752;10.290;2022-09-21T04:51:30;4.53;;;3.20;;
50092;SDS011;35974;47.752;10.290;2022-09-21T04:53:59;6.75;;;3.70;;
50092;SDS011;35974;47.752;10.290;2022-09-21T04:56:28;6.40;;;3.50;;
50092;SDS011;35974;47.752;10.290;2022-09-21T04:58:55;7.15;;;3.55;;
50092;SDS011;35974;47.752;10.290;2022-09-21T05:01:25;5.90;;;3.65;;
50092;SDS011;35974;47.752;10.290;2022-09-21T05:03:51;9.32;;;4.10;;
50092;SDS011;35974;47.752;10.290;2022-09-21T05:06:18;9.65;;;4.10;;
50092;SDS011;35974;47.752;10.290;2022-09-21T05:08:50;9.70;;;3.47;;
50092;SDS011;35974;47.752;10.290;2022-09-21T05:11:35;8.38;;;3.78;;
50092;SDS011;35974;47.752;10.290;2022-09-21T05:14:04;8.20;;;3.70;;
50092;SDS011;35974;47.752;10.290;2022-09-21T05:16:35;7.30;;;3.75;;
50092;SDS011;35974;47.752;10.290;2022-09-21T05:19:04;5.97;;;3.67;;
50092;SDS011;35974;47.752;10.290;2022-09-21T05:21:33;7.18;;;4.00;;
50092;SDS011;35974;47.752;10.290;2022-09-21T05:24:04;5.63;;;3.80;;
50092;SDS011;35974;47.752;10.290;2022-09-21T05:26:34;7.38;;;4.18;;
50092;SDS011;35974;47.752;10.290;2022-09-21T05:29:07;7.88;;;3.95;;
50092;SDS011;35974;47.752;10.290;2022-09-21T05:39:40;11.40;;;4.70;;
50092;SDS011;35974;47.752;10.290;2022-09-21T05:42:10;6.88;;;4.07;;
50092;SDS011;35974;47.752;10.290;2022-09-21T05:44:39;8.23;;;4.18;;
50092;SDS011;35974;47.752;10.290;2022-09-21T05:55:29;13.38;;;5.45;;
50092;SDS011;35974;47.752;10.290;2022-09-21T05:58:05;15.45;;;5.75;;
50092;SDS011;35974;47.752;10.290;2022-09-21T06:03:40;15.88;;;6.93;;
50092;SDS011;35974;47.752;10.290;2022-09-21T06:06:08;11.98;;;6.28;;
50092;SDS011;35974;47.752;10.290;2022-09-21T06:08:38;10.98;;;6.18;;
50092;SDS011;35974;47.752;10.290;2022-09-21T06:11:08;10.80;;;5.60;;
50092;SDS011;35974;47.752;10.290;2022-09-21T06:13:35;9.18;;;5.68;;
50092;SDS011;35974;47.752;10.290;2022-09-21T06:16:02;12.18;;;5.80;;
50092;SDS011;35974;47.752;10.290;2022-09-21T06:18:36;11.85;;;6.35;;
50092;SDS011;35974;47.752;10.290;2022-09-21T06:21:05;8.65;;;5.57;;
50092;SDS011;35974;47.752;10.290;2022-09-21T06:23:39;9.05;;;5.80;;
50092;SDS011;35974;47.752;10.290;2022-09-21T06:26:06;12.05;;;5.85;;
50092;SDS011;35974;47.752;10.290;2022-09-21T06:28:33;12.95;;;6.07;;
50092;SDS011;35974;47.752;10.290;2022-09-21T06:30:59;11.00;;;5.80;;
50092;SDS011;35974;47.752;10.290;2022-09-21T06:33:29;11.90;;;5.82;;
50092;SDS011;35974;47.752;10.290;2022-09-21T06:35:57;12.63;;;6.50;;
50092;SDS011;35974;47.752;10.290;2022-09-21T06:38:28;10.65;;;6.28;;
50092;SDS011;35974;47.752;10.290;2022-09-21T06:41:00;10.98;;;6.57;;
50092;SDS011;35974;47.752;10.290;2022-09-21T06:43:30;13.05;;;6.70;;
50092;SDS011;35974;47.752;10.290;2022-09-21T06:45:59;12.15;;;6.53;;
50092;SDS011;35974;47.752;10.290;2022-09-21T06:48:27;10.27;;;6.95;;
50092;SDS011;35974;47.752;10.290;2022-09-21T06:50:58;13.63;;;6.32;;
50092;SDS011;35974;47.752;10.290;2022-09-21T06:53:26;13.45;;;6.60;;
50092;SDS011;35974;47.752;10.290;2022-09-21T06:56:03;10.00;;;6.50;;
50092;SDS011;35974;47.752;10.290;2022-09-21T06:58:34;11.30;;;6.30;;
50092;SDS011;35974;47.752;10.290;2022-09-21T07:01:07;11.05;;;7.18;;
50092;SDS011;35974;47.752;10.290;2022-09-21T07:03:35;10.63;;;7.18;;
50092;SDS011;35974;47.752;10.290;2022-09-21T07:06:04;11.80;;;6.93;;
50092;SDS011;35974;47.752;10.290;2022-09-21T07:08:32;12.00;;;6.05;;
50092;SDS011;35974;47.752;10.290;2022-09-21T07:11:22;17.23;;;6.63;;
50092;SDS011;35974;47.752;10.290;2022-09-21T07:13:49;13.55;;;6.03;;
50092;SDS011;35974;47.752;10.290;2022-09-21T07:16:18;12.05;;;5.38;;
50092;SDS011;35974;47.752;10.290;2022-09-21T07:18:46;12.63;;;5.43;;
50092;SDS011;35974;47.752;10.290;2022-09-21T07:21:14;10.18;;;5.18;;
50092;SDS011;35974;47.752;10.290;2022-09-21T07:23:43;9.57;;;5.20;;
50092;SDS011;35974;47.752;10.290;2022-09-21T07:26:15;14.95;;;4.65;;
50092;SDS011;35974;47.752;10.290;2022-09-21T07:28:45;11.30;;;4.90;;
50092;SDS011;35974;47.752;10.290;2022-09-21T07:31:13;10.32;;;4.78;;
50092;SDS011;35974;47.752;10.290;2022-09-21T07:33:43;9.85;;;4.95;;
50092;SDS011;35974;47.752;10.290;2022-09-21T07:36:13;11.95;;;5.38;;
50092;SDS011;35974;47.752;10.290;2022-09-21T07:38:45;10.20;;;4.57;;
50092;SDS011;35974;47.752;10.290;2022-09-21T07:41:12;7.55;;;4.40;;
50092;SDS011;35974;47.752;10.290;2022-09-21T07:43:39;11.95;;;4.80;;
50092;SDS011;35974;47.752;10.290;2022-09-21T07:46:11;11.43;;;4.40;;
50092;SDS011;35974;47.752;10.290;2022-09-21T07:48:39;10.05;;;4.50;;
50092;SDS011;35974;47.752;10.290;2022-09-21T07:51:08;8.63;;;3.90;;
50092;SDS011;35974;47.752;10.290;2022-09-21T07:53:42;7.72;;;4.43;;
50092;SDS011;35974;47.752;10.290;2022-09-21T07:56:15;8.77;;;4.13;;
50092;SDS011;35974;47.752;10.290;2022-09-21T07:58:45;8.82;;;4.28;;
50092;SDS011;35974;47.752;10.290;2022-09-21T08:01:33;11.07;;;4.20;;
50092;SDS011;35974;47.752;10.290;2022-09-21T08:04:01;6.28;;;3.63;;
50092;SDS011;35974;47.752;10.290;2022-09-21T08:06:32;12.02;;;3.72;;
50092;SDS011;35974;47.752;10.290;2022-09-21T08:09:02;5.45;;;3.42;;
50092;SDS011;35974;47.752;10.290;2022-09-21T08:11:29;5.53;;;3.35;;
50092;SDS011;35974;47.752;10.290;2022-09-21T08:13:57;4.68;;;2.95;;
50092;SDS011;35974;47.752;10.290;2022-09-21T08:16:26;8.43;;;3.28;;
50092;SDS011;35974;47.752;10.290;2022-09-21T08:18:54;7.78;;;2.80;;
50092;SDS011;35974;47.752;10.290;2022-09-21T08:21:21;5.20;;;2.53;;
50092;SDS011;35974;47.752;10.290;2022-09-21T08:23:53;4.22;;;2.60;;
50092;SDS011;35974;47.752;10.290;2022-09-21T08:26:19;11.02;;;2.65;;
50092;SDS011;35974;47.752;10.290;2022-09-21T08:28:47;6.22;;;2.40;;
50092;SDS011;35974;47.752;10.290;2022-09-21T08:31:17;3.97;;;1.88;;
50092;SDS011;35974;47.752;10.290;2022-09-21T08:33:46;4.00;;;2.03;;
50092;SDS011;35974;47.752;10.290;2022-09-21T08:36:15;8.18;;;2.20;;
50092;SDS011;35974;47.752;10.290;2022-09-21T08:38:44;8.85;;;2.30;;
50092;SDS011;35974;47.752;10.290;2022-09-21T08:44:23;5.50;;;2.42;;
50092;SDS011;35974;47.752;10.290;2022-09-21T08:47:08;8.70;;;2.00;;
50092;SDS011;35974;47.752;10.290;2022-09-21T08:49:45;8.73;;;1.70;;
50092;SDS011;35974;47.752;10.290;2022-09-21T08:52:19;5.35;;;2.30;;
50092;SDS011;35974;47.752;10.290;2022-09-21T08:57:23;7.45;;;2.42;;
50092;SDS011;35974;47.752;10.290;2022-09-21T08:59:54;6.30;;;2.45;;
50092;SDS011;35974;47.752;10.290;2022-09-21T09:05:12;6.15;;;2.03;;
50092;SDS011;35974;47.752;10.290;2022-09-21T09:14:00;5.38;;;1.60;;
50092;SDS011;35974;47.752;10.290;2022-09-21T09:16:55;5.38;;;2.28;;
50092;SDS011;35974;47.752;10.290;2022-09-21T09:22:31;4.38;;;1.33;;
50092;SDS011;35974;47.752;10.290;2022-09-21T09:25:12;4.93;;;1.60;;
50092;SDS011;35974;47.752;10.290;2022-09-21T09:27:44;3.40;;;1.40;;
50092;SDS011;35974;47.752;10.290;2022-09-21T09:30:26;3.45;;;1.40;;
50092;SDS011;35974;47.752;10.290;2022-09-21T09:36:02;2.90;;;1.58;;
50092;SDS011;35974;47.752;10.290;2022-09-21T09:38:35;3.47;;;1.42;;
50092;SDS011;35974;47.752;10.290;2022-09-21T09:41:24;4.95;;;1.60;;
50092;SDS011;35974;47.752;10.290;2022-09-21T09:52:23;7.25;;;1.30;;
50092;SDS011;35974;47.752;10.290;2022-09-21T09:54:51;3.05;;;0.95;;
50092;SDS011;35974;47.752;10.290;2022-09-21T09:57:23;4.78;;;1.40;;
50092;SDS011;35974;47.752;10.290;2022-09-21T10:00:01;3.88;;;1.00;;
50092;SDS011;35974;47.752;10.290;2022-09-21T10:02:35;5.53;;;1.05;;
50092;SDS011;35974;47.752;10.290;2022-09-21T10:05:17;3.55;;;1.05;;
50092;SDS011;35974;47.752;10.290;2022-09-21T10:07:48;4.47;;;1.50;;
50092;SDS011;35974;47.752;10.290;2022-09-21T10:12:55;4.03;;;1.20;;
50092;SDS011;35974;47.752;10.290;2022-09-21T10:15:32;2.80;;;0.90;;
50092;SDS011;35974;47.752;10.290;2022-09-21T10:18:04;3.70;;;0.80;;
50092;SDS011;35974;47.752;10.290;2022-09-21T10:20:53;4.25;;;0.90;;
50092;SDS011;35974;47.752;10.290;2022-09-21T10:23:47;2.55;;;1.00;;
50092;SDS011;35974;47.752;10.290;2022-09-21T10:26:18;3.63;;;1.20;;
50092;SDS011;35974;47.752;10.290;2022-09-21T10:32:00;2.17;;;0.90;;
50092;SDS011;35974;47.752;10.290;2022-09-21T10:34:30;5.47;;;1.08;;
50092;SDS011;35974;47.752;10.290;2022-09-21T10:37:00;3.53;;;1.25;;
50092;SDS011;35974;47.752;10.290;2022-09-21T10:39:47;2.33;;;0.95;;
50092;SDS011;35974;47.752;10.290;2022-09-21T10:42:15;3.10;;;0.90;;
50092;SDS011;35974;47.752;10.290;2022-09-21T10:45:03;1.45;;;0.68;;
50092;SDS011;35974;47.752;10.290;2022-09-21T10:55:52;0.88;;;0.43;;
50092;SDS011;35974;47.752;10.290;2022-09-21T10:58:40;2.55;;;0.60;;
50092;SDS011;35974;47.752;10.290;2022-09-21T11:01:46;2.05;;;0.60;;
50092;SDS011;35974;47.752;10.290;2022-09-21T11:07:14;2.85;;;0.80;;
50092;SDS011;35974;47.752;10.290;2022-09-21T11:10:22;2.25;;;0.60;;
50092;SDS011;35974;47.752;10.290;2022-09-21T11:13:27;3.55;;;0.70;;
50092;SDS011;35974;47.752;10.290;2022-09-21T11:16:01;1.88;;;0.50;;
50092;SDS011;35974;47.752;10.290;2022-09-21T11:21:17;0.80;;;0.50;;
50092;SDS011;35974;47.752;10.290;2022-09-21T11:24:13;1.20;;;0.52;;
50092;SDS011;35974;47.752;10.290;2022-09-21T11:29:35;2.95;;;0.60;;
50092;SDS011;35974;47.752;10.290;2022-09-21T11:32:17;1.85;;;0.40;;
50092;SDS011;35974;47.752;10.290;2022-09-21T11:59:58;2.53;;;0.68;;
50092;SDS011;35974;47.752;10.290;2022-09-21T12:05:31;2.38;;;0.70;;
50092;SDS011;35974;47.752;10.290;2022-09-21T12:08:21;2.13;;;0.70;;
50092;SDS011;35974;47.752;10.290;2022-09-21T12:14:09;1.52;;;0.50;;
50092;SDS011;35974;47.752;10.290;2022-09-21T12:17:09;1.13;;;0.50;;
50092;SDS011;35974;47.752;10.290;2022-09-21T12:22:40;1.95;;;0.50;;
50092;SDS011;35974;47.752;10.290;2022-09-21T12:25:11;2.10;;;0.50;;
50092;SDS011;35974;47.752;10.290;2022-09-21T12:27:49;0.65;;;0.38;;
50092;SDS011;35974;47.752;10.290;2022-09-21T12:30:20;4.15;;;0.60;;
50092;SDS011;35974;47.752;10.290;2022-09-21T12:35:54;0.65;;;0.38;;
50092;SDS011;35974;47.752;10.290;2022-09-21T12:38:52;2.13;;;0.60;;
50092;SDS011;35974;47.752;10.290;2022-09-21T12:44:21;4.03;;;0.60;;
50092;SDS011;35974;47.752;10.290;2022-09-21T12:47:19;2.40;;;0.68;;
50092;SDS011;35974;47.752;10.290;2022-09-21T12:52:25;2.30;;;0.70;;
50092;SDS011;35974;47.752;10.290;2022-09-21T12:54:59;1.27;;;0.40;;
50092;SDS011;35974;47.752;10.290;2022-09-21T13:00:53;2.95;;;0.50;;
50092;SDS011;35974;47.752;10.290;2022-09-21T13:03:36;1.40;;;0.50;;
50092;SDS011;35974;47.752;10.290;2022-09-21T13:09:05;0.60;;;0.40;;
50092;SDS011;35974;47.752;10.290;2022-09-21T13:11:47;0.93;;;0.52;;
50092;SDS011;35974;47.752;10.290;2022-09-21T13:14:27;2.35;;;0.63;;
50092;SDS011;35974;47.752;10.290;2022-09-21T13:19:33;1.50;;;0.40;;
50092;SDS011;35974;47.752;10.290;2022-09-21T13:25:05;3.53;;;1.42;;
50092;SDS011;35974;47.752;10.290;2022-09-21T13:28:16;2.63;;;1.83;;
50092;SDS011;35974;47.752;10.290;2022-09-21T13:31:29;3.83;;;0.50;;
50092;SDS011;35974;47.752;10.290;2022-09-21T13:34:05;1.52;;;0.65;;
50092;SDS011;35974;47.752;10.290;2022-09-21T13:40:28;1.75;;;0.50;;
50092;SDS011;35974;47.752;10.290;2022-09-21T13:42:47;1.00;;;0.50;;
50092;SDS011;35974;47.752;10.290;2022-09-21T13:47:45;2.30;;;0.55;;
50092;SDS011;35974;47.752;10.290;2022-09-21T13:50:26;2.38;;;0.43;;
50092;SDS011;35974;47.752;10.290;2022-09-21T13:52:58;1.27;;;0.40;;
50092;SDS011;35974;47.752;10.290;2022-09-21T13:55:29;0.95;;;0.30;;
50092;SDS011;35974;47.752;10.290;2022-09-21T13:58:05;1.65;;;0.40;;
50092;SDS011;35974;47.752;10.290;2022-09-21T14:03:24;1.65;;;0.60;;
50092;SDS011;35974;47.752;10.290;2022-09-21T14:06:07;2.20;;;0.40;;
50092;SDS011;35974;47.752;10.290;2022-09-21T14:14:02;0.47;;;0.35;;
50092;SDS011;35974;47.752;10.290;2022-09-21T14:24:42;3.40;;;0.60;;
50092;SDS011;35974;47.752;10.290;2022-09-21T14:30:01;0.85;;;0.32;;
50092;SDS011;35974;47.752;10.290;2022-09-21T14:35:31;2.65;;;0.50;;
50092;SDS011;35974;47.752;10.290;2022-09-21T14:38:04;0.70;;;0.30;;
50092;SDS011;35974;47.752;10.290;2022-09-21T14:40:39;1.77;;;0.32;;
50092;SDS011;35974;47.752;10.290;2022-09-21T14:43:14;1.38;;;0.47;;
50092;SDS011;35974;47.752;10.290;2022-09-21T14:51:51;1.08;;;0.40;;
50092;SDS011;35974;47.752;10.290;2022-09-21T14:57:48;0.40;;;0.30;;
50092;SDS011;35974;47.752;10.290;2022-09-21T15:00:38;2.28;;;0.50;;
50092;SDS011;35974;47.752;10.290;2022-09-21T15:06:40;0.77;;;0.40;;
50092;SDS011;35974;47.752;10.290;2022-09-21T15:12:51;0.95;;;0.30;;
50092;SDS011;35974;47.752;10.290;2022-09-21T15:15:43;1.73;;;0.40;;
50092;SDS011;35974;47.752;10.290;2022-09-21T15:18:21;2.65;;;0.40;;
50092;SDS011;35974;47.752;10.290;2022-09-21T15:20:55;2.08;;;0.40;;
50092;SDS011;35974;47.752;10.290;2022-09-21T15:23:27;1.98;;;0.43;;
50092;SDS011;35974;47.752;10.290;2022-09-21T15:26:01;1.85;;;0.40;;
50092;SDS011;35974;47.752;10.290;2022-09-21T15:31:23;1.75;;;0.47;;
50092;SDS011;35974;47.752;10.290;2022-09-21T15:33:50;1.30;;;0.30;;
50092;SDS011;35974;47.752;10.290;2022-09-21T15:36:19;1.17;;;0.30;;
50092;SDS011;35974;47.752;10.290;2022-09-21T15:38:47;1.40;;;0.50;;
50092;SDS011;35974;47.752;10.290;2022-09-21T15:44:14;2.47;;;0.60;;
50092;SDS011;35974;47.752;10.290;2022-09-21T15:46:44;1.38;;;0.30;;
50092;SDS011;35974;47.752;10.290;2022-09-21T15:49:13;0.82;;;0.32;;
50092;SDS011;35974;47.752;10.290;2022-09-21T15:51:42;0.88;;;0.50;;
50092;SDS011;35974;47.752;10.290;2022-09-21T15:54:17;1.48;;;0.57;;
50092;SDS011;35974;47.752;10.290;2022-09-21T15:56:50;1.33;;;0.50;;
50092;SDS011;35974;47.752;10.290;2022-09-21T15:59:18;0.95;;;0.60;;
50092;SDS011;35974;47.752;10.290;2022-09-21T16:01:48;0.85;;;0.50;;
50092;SDS011;35974;47.752;10.290;2022-09-21T16:04:19;2.42;;;0.73;;
50092;SDS011;35974;47.752;10.290;2022-09-21T16:07:04;0.70;;;0.50;;
50092;SDS011;35974;47.752;10.290;2022-09-21T16:09:35;1.85;;;0.60;;
50092;SDS011;35974;47.752;10.290;2022-09-21T16:15:04;0.70;;;0.40;;
50092;SDS011;35974;47.752;10.290;2022-09-21T16:17:38;1.35;;;0.40;;
50092;SDS011;35974;47.752;10.290;2022-09-21T16:20:18;2.25;;;0.60;;
50092;SDS011;35974;47.752;10.290;2022-09-21T16:22:49;1.10;;;0.40;;
50092;SDS011;35974;47.752;10.290;2022-09-21T16:27:57;0.70;;;0.40;;
50092;SDS011;35974;47.752;10.290;2022-09-21T16:30:38;2.65;;;0.50;;
50092;SDS011;35974;47.752;10.290;2022-09-21T16:36:52;0.70;;;0.47;;
50092;SDS011;35974;47.752;10.290;2022-09-21T16:38:57;0.73;;;0.60;;
50092;SDS011;35974;47.752;10.290;2022-09-21T16:41:31;2.30;;;0.80;;
50092;SDS011;35974;47.752;10.290;2022-09-21T16:44:00;3.05;;;1.08;;
50092;SDS011;35974;47.752;10.290;2022-09-21T16:46:27;1.67;;;0.60;;
50092;SDS011;35974;47.752;10.290;2022-09-21T16:48:57;2.00;;;0.60;;
50092;SDS011;35974;47.752;10.290;2022-09-21T16:51:24;1.70;;;0.40;;
50092;SDS011;35974;47.752;10.290;2022-09-21T16:53:52;1.98;;;0.50;;
50092;SDS011;35974;47.752;10.290;2022-09-21T16:56:20;2.28;;;0.60;;
50092;SDS011;35974;47.752;10.290;2022-09-21T16:58:46;1.30;;;0.50;;
50092;SDS011;35974;47.752;10.290;2022-09-21T17:01:16;2.10;;;0.63;;
50092;SDS011;35974;47.752;10.290;2022-09-21T17:03:47;1.17;;;0.50;;
50092;SDS011;35974;47.752;10.290;2022-09-21T17:06:17;1.25;;;0.55;;
50092;SDS011;35974;47.752;10.290;2022-09-21T17:08:46;0.75;;;0.50;;
50092;SDS011;35974;47.752;10.290;2022-09-21T17:11:17;1.48;;;0.55;;
50092;SDS011;35974;47.752;10.290;2022-09-21T17:13:48;2.08;;;0.50;;
50092;SDS011;35974;47.752;10.290;2022-09-21T17:16:15;1.73;;;0.75;;
50092;SDS011;35974;47.752;10.290;2022-09-21T17:18:44;4.82;;;0.60;;
50092;SDS011;35974;47.752;10.290;2022-09-21T17:21:12;1.02;;;0.65;;
50092;SDS011;35974;47.752;10.290;2022-09-21T17:23:42;0.77;;;0.52;;
50092;SDS011;35974;47.752;10.290;2022-09-21T17:26:14;1.55;;;0.50;;
50092;SDS011;35974;47.752;10.290;2022-09-21T17:28:42;2.30;;;0.63;;
50092;SDS011;35974;47.752;10.290;2022-09-21T17:31:13;1.50;;;0.68;;
50092;SDS011;35974;47.752;10.290;2022-09-21T17:33:45;2.03;;;0.60;;
50092;SDS011;35974;47.752;10.290;2022-09-21T17:36:13;1.92;;;0.82;;
50092;SDS011;35974;47.752;10.290;2022-09-21T17:38:41;2.20;;;0.60;;
50092;SDS011;35974;47.752;10.290;2022-09-21T17:41:28;2.40;;;0.63;;
50092;SDS011;35974;47.752;10.290;2022-09-21T17:46:53;1.95;;;0.70;;
50092;SDS011;35974;47.752;10.290;2022-09-21T17:49:24;2.38;;;0.70;;
50092;SDS011;35974;47.752;10.290;2022-09-21T17:51:51;3.03;;;0.93;;
50092;SDS011;35974;47.752;10.290;2022-09-21T17:54:36;0.85;;;0.65;;
50092;SDS011;35974;47.752;10.290;2022-09-21T17:57:12;1.90;;;0.98;;
50092;SDS011;35974;47.752;10.290;2022-09-21T17:59:49;1.95;;;0.70;;
50092;SDS011;35974;47.752;10.290;2022-09-21T18:02:24;5.05;;;0.90;;
50092;SDS011;35974;47.752;10.290;2022-09-21T18:04:52;2.63;;;0.80;;
50092;SDS011;35974;47.752;10.290;2022-09-21T18:07:25;2.80;;;0.90;;
50092;SDS011;35974;47.752;10.290;2022-09-21T18:09:52;1.88;;;0.90;;
50092;SDS011;35974;47.752;10.290;2022-09-21T18:18:01;2.78;;;1.38;;
50092;SDS011;35974;47.752;10.290;2022-09-21T18:26:21;2.75;;;1.48;;
50092;SDS011;35974;47.752;10.290;2022-09-21T18:28:48;3.10;;;1.80;;
50092;SDS011;35974;47.752;10.290;2022-09-21T18:31:36;4.22;;;2.30;;
50092;SDS011;35974;47.752;10.290;2022-09-21T18:34:21;7.45;;;3.53;;
50092;SDS011;35974;47.752;10.290;2022-09-21T18:45:24;7.35;;;3.63;;
50092;SDS011;35974;47.752;10.290;2022-09-21T18:50:44;8.23;;;3.10;;
50092;SDS011;35974;47.752;10.290;2022-09-21T18:53:28;5.70;;;2.88;;
50092;SDS011;35974;47.752;10.290;2022-09-21T18:55:59;6.38;;;2.92;;
50092;SDS011;35974;47.752;10.290;2022-09-21T18:58:26;4.10;;;2.38;;
50092;SDS011;35974;47.752;10.290;2022-09-21T19:00:55;5.78;;;2.72;;
50092;SDS011;35974;47.752;10.290;2022-09-21T19:03:22;5.35;;;2.50;;
50092;SDS011;35974;47.752;10.290;2022-09-21T19:08:54;4.55;;;2.10;;
50092;SDS011;35974;47.752;10.290;2022-09-21T19:14:25;3.75;;;1.98;;